Leavenworth, Kansas
Current Conditions -  °F | °C
As of 1:56 PM on Sunday 23 Nov 2014 (Local Time) from KMCI Reporting Station
Overcast Overcast  
Wind Chill: 56°   Ceiling: 1300
Heat Index: 56°   Visibility: 3mi
Dew Point: 55°   Wind: 5mph
Humidity: 97%   Direction: 230°SW
Pressure: 29.35"   Gusts: NA
Location:  39.32°N, 94.91°W
Report Text: KMCI 231956Z 23004KT 3SM SCT008 BKN013 OVC035 13/13 A2935 RMK AO2 SFC VIS 7 T01330128
Loading
Personal Weather Stations






























Interactive Weather Map New forecast layout! Learn more

10-Day Weather Forecast

Advertisements
Track Severe Weather on mobile